Kezdőlap
METAR-TAF:

METAR-TAF

Repülőterek :

Curaçao, Holland Antillák

földrajzi szélesség: 12-12N, földrajzi hosszúság: 068-58W, magasság: 9 m

Jelenlegi meteorológiai megfigyelések

A jelentés 35 perccel ezelõtt készült, 17:30 UTC
Kelet-délkeleti szél 19 kt széllökések: 29 kt
Hőmérséklet 32°C
Páratartalom 71%
Légköri nyomás 1010 hPa
Látótávolság 10 km, vagy több
Kevés felhő 2300 lábon

METAR: TNCC 201730Z AUTO 11019G29KT 9999 FEW023 32/26 Q1010 NOSIG

Idő: 14:05 (18:05 UTC)

Előrejelzés

A jelentés 50 perccel ezelõtt készült, 17:15 UTC
Az előrejelzés 20-én 18 óra UTC és 21-én 18 óra UTC között érvényes
Keleti szél 17 kt
Látótávolság 10 km, vagy több
Szórványos felhőzet 2500 lábon
Valószínűség 30% :
21-én 10 óra UTC és 21-én 18 óra UTC között ideiglenes
Látótávolság: 7000 m
Szakadozott felhőzet 1500 lábon
záporok,

TAF: TNCC 201715Z 2018/2118 10017KT 9999 SCT025 PROB30 TEMPO 2110/2118 7000 SHRA BKN015

Meteorológiai megfigyelések és előrejelzések több, mint 4000 repülőtéren (METAR és TAF jelentéseket).

A térképen piros és sárga pontok jelzik az elérhető meteorológiai állomásokat.

Mozgassa az egeret a pont fölött, hogy megjelenjen az állomás neve.

Azután kattintson az időjárási megfigyelések és előrejelzések megtekintéséhez.

A térkép megváltoztatása: kattintson a fekete keresztel jelölt zöld gombra ráközelítéshez, a vonallal jelölt zöld gombra távolításhoz, vagy a zöld nyilakra a szomszédos térképek eléréséhez.


METAR-TAF: